sensor_id;sensor_type;location;lat;lon;timestamp;temperature;humidity
71177;DHT22;58877;51.992;4.504;2024-01-16T00:01:26;2.71;82.31
71177;DHT22;58877;51.992;4.504;2024-01-16T00:03:52;2.76;81.55
71177;DHT22;58877;51.992;4.504;2024-01-16T00:06:20;2.73;81.62
71177;DHT22;58877;51.992;4.504;2024-01-16T00:08:46;2.68;82.20
71177;DHT22;58877;51.992;4.504;2024-01-16T00:11:12;2.62;81.54
71177;DHT22;58877;51.992;4.504;2024-01-16T00:13:37;2.48;81.72
71177;DHT22;58877;51.992;4.504;2024-01-16T00:16:03;2.44;81.21
71177;DHT22;58877;51.992;4.504;2024-01-16T00:18:29;2.60;80.30
71177;DHT22;58877;51.992;4.504;2024-01-16T00:20:55;2.68;79.53
71177;DHT22;58877;51.992;4.504;2024-01-16T00:23:21;2.78;78.50
71177;DHT22;58877;51.992;4.504;2024-01-16T00:25:46;2.85;78.24
71177;DHT22;58877;51.992;4.504;2024-01-16T00:28:12;2.80;77.77
71177;DHT22;58877;51.992;4.504;2024-01-16T00:30:38;2.84;78.14
71177;DHT22;58877;51.992;4.504;2024-01-16T00:33:03;2.81;77.91
71177;DHT22;58877;51.992;4.504;2024-01-16T00:35:29;2.77;77.68
71177;DHT22;58877;51.992;4.504;2024-01-16T00:37:54;2.76;78.04
71177;DHT22;58877;51.992;4.504;2024-01-16T00:40:20;2.83;78.00
71177;DHT22;58877;51.992;4.504;2024-01-16T00:42:45;2.84;78.19
71177;DHT22;58877;51.992;4.504;2024-01-16T00:45:11;2.88;78.38
71177;DHT22;58877;51.992;4.504;2024-01-16T00:47:37;2.85;78.92
71177;DHT22;58877;51.992;4.504;2024-01-16T00:50:03;2.81;78.95
71177;DHT22;58877;51.992;4.504;2024-01-16T00:52:34;2.77;79.67
71177;DHT22;58877;51.992;4.504;2024-01-16T00:55:00;2.73;80.19
71177;DHT22;58877;51.992;4.504;2024-01-16T00:57:25;2.80;80.08
71177;DHT22;58877;51.992;4.504;2024-01-16T00:59:51;2.80;80.04
71177;DHT22;58877;51.992;4.504;2024-01-16T01:02:17;2.88;79.85
71177;DHT22;58877;51.992;4.504;2024-01-16T01:04:43;2.85;79.84
71177;DHT22;58877;51.992;4.504;2024-01-16T01:07:08;2.87;79.81
71177;DHT22;58877;51.992;4.504;2024-01-16T01:09:34;2.92;79.94
71177;DHT22;58877;51.992;4.504;2024-01-16T01:12:00;2.89;79.52
71177;DHT22;58877;51.992;4.504;2024-01-16T01:14:25;2.87;79.80
71177;DHT22;58877;51.992;4.504;2024-01-16T01:16:54;2.85;79.87
71177;DHT22;58877;51.992;4.504;2024-01-16T01:19:20;2.85;79.74
71177;DHT22;58877;51.992;4.504;2024-01-16T01:21:45;2.91;79.58
71177;DHT22;58877;51.992;4.504;2024-01-16T01:24:11;2.88;79.77
71177;DHT22;58877;51.992;4.504;2024-01-16T01:26:37;2.89;79.87
71177;DHT22;58877;51.992;4.504;2024-01-16T01:29:02;2.83;79.91
71177;DHT22;58877;51.992;4.504;2024-01-16T01:31:28;2.84;79.99
71177;DHT22;58877;51.992;4.504;2024-01-16T01:33:53;2.68;80.24
71177;DHT22;58877;51.992;4.504;2024-01-16T01:36:19;2.73;80.57
71177;DHT22;58877;51.992;4.504;2024-01-16T01:38:44;2.60;80.84
71177;DHT22;58877;51.992;4.504;2024-01-16T01:41:10;2.68;80.83
71177;DHT22;58877;51.992;4.504;2024-01-16T01:43:37;2.78;80.84
71177;DHT22;58877;51.992;4.504;2024-01-16T01:46:09;2.89;80.39
71177;DHT22;58877;51.992;4.504;2024-01-16T01:48:37;2.89;80.72
71177;DHT22;58877;51.992;4.504;2024-01-16T01:51:06;2.95;80.32
71177;DHT22;58877;51.992;4.504;2024-01-16T01:53:33;2.95;80.23
71177;DHT22;58877;51.992;4.504;2024-01-16T01:56:04;3.01;80.25
71177;DHT22;58877;51.992;4.504;2024-01-16T01:58:38;3.12;80.19
71177;DHT22;58877;51.992;4.504;2024-01-16T02:01:05;3.11;79.98
71177;DHT22;58877;51.992;4.504;2024-01-16T02:03:38;3.22;80.28
71177;DHT22;58877;51.992;4.504;2024-01-16T02:06:05;3.29;79.68
71177;DHT22;58877;51.992;4.504;2024-01-16T02:08:31;3.38;79.52
71177;DHT22;58877;51.992;4.504;2024-01-16T02:10:57;3.31;79.31
71177;DHT22;58877;51.992;4.504;2024-01-16T02:13:22;3.15;79.85
71177;DHT22;58877;51.992;4.504;2024-01-16T02:15:52;3.13;80.59
71177;DHT22;58877;51.992;4.504;2024-01-16T02:18:18;3.07;80.43
71177;DHT22;58877;51.992;4.504;2024-01-16T02:20:44;2.92;81.05
71177;DHT22;58877;51.992;4.504;2024-01-16T02:23:13;2.64;82.86
71177;DHT22;58877;51.992;4.504;2024-01-16T02:25:41;2.57;83.07
71177;DHT22;58877;51.992;4.504;2024-01-16T02:28:07;2.57;83.50
71177;DHT22;58877;51.992;4.504;2024-01-16T02:30:33;2.54;83.87
71177;DHT22;58877;51.992;4.504;2024-01-16T02:32:59;2.58;83.61
71177;DHT22;58877;51.992;4.504;2024-01-16T02:35:24;2.48;83.93
71177;DHT22;58877;51.992;4.504;2024-01-16T02:37:50;2.29;85.07
71177;DHT22;58877;51.992;4.504;2024-01-16T02:40:16;2.37;85.17
71177;DHT22;58877;51.992;4.504;2024-01-16T02:42:42;2.38;85.24
71177;DHT22;58877;51.992;4.504;2024-01-16T02:45:08;2.33;84.93
71177;DHT22;58877;51.992;4.504;2024-01-16T02:47:34;2.29;85.54
71177;DHT22;58877;51.992;4.504;2024-01-16T02:50:00;2.38;85.43
71177;DHT22;58877;51.992;4.504;2024-01-16T02:52:26;2.43;85.31
71177;DHT22;58877;51.992;4.504;2024-01-16T02:54:55;2.51;85.03
71177;DHT22;58877;51.992;4.504;2024-01-16T02:57:21;2.56;84.80
71177;DHT22;58877;51.992;4.504;2024-01-16T02:59:46;2.64;85.02
71177;DHT22;58877;51.992;4.504;2024-01-16T03:02:12;2.64;84.74
71177;DHT22;58877;51.992;4.504;2024-01-16T03:04:38;2.74;84.69
71177;DHT22;58877;51.992;4.504;2024-01-16T03:07:04;2.68;84.48
71177;DHT22;58877;51.992;4.504;2024-01-16T03:09:30;2.54;84.60
71177;DHT22;58877;51.992;4.504;2024-01-16T03:11:56;2.50;85.16
71177;DHT22;58877;51.992;4.504;2024-01-16T03:14:21;2.48;85.38
71177;DHT22;58877;51.992;4.504;2024-01-16T03:16:47;2.58;85.42
71177;DHT22;58877;51.992;4.504;2024-01-16T03:19:13;2.57;85.13
71177;DHT22;58877;51.992;4.504;2024-01-16T03:21:38;2.58;85.16
71177;DHT22;58877;51.992;4.504;2024-01-16T03:24:05;2.62;85.24
71177;DHT22;58877;51.992;4.504;2024-01-16T03:26:36;2.68;84.84
71177;DHT22;58877;51.992;4.504;2024-01-16T03:29:02;2.70;84.74
71177;DHT22;58877;51.992;4.504;2024-01-16T03:31:28;2.68;84.46
71177;DHT22;58877;51.992;4.504;2024-01-16T03:33:53;2.71;84.34
71177;DHT22;58877;51.992;4.504;2024-01-16T03:36:19;2.68;84.52
71177;DHT22;58877;51.992;4.504;2024-01-16T03:38:44;2.71;84.23
71177;DHT22;58877;51.992;4.504;2024-01-16T03:41:11;2.73;84.25
71177;DHT22;58877;51.992;4.504;2024-01-16T03:43:37;2.76;84.15
71177;DHT22;58877;51.992;4.504;2024-01-16T03:46:06;2.76;84.06
71177;DHT22;58877;51.992;4.504;2024-01-16T03:48:32;2.81;84.08
71177;DHT22;58877;51.992;4.504;2024-01-16T03:50:57;2.76;84.03
71177;DHT22;58877;51.992;4.504;2024-01-16T03:53:23;2.81;84.13
71177;DHT22;58877;51.992;4.504;2024-01-16T03:55:49;2.81;84.11
71177;DHT22;58877;51.992;4.504;2024-01-16T03:58:16;2.91;84.41
71177;DHT22;58877;51.992;4.504;2024-01-16T04:00:41;2.99;83.40
71177;DHT22;58877;51.992;4.504;2024-01-16T04:03:07;2.80;83.23
71177;DHT22;58877;51.992;4.504;2024-01-16T04:05:36;2.54;84.49
71177;DHT22;58877;51.992;4.504;2024-01-16T04:08:02;2.43;85.14
71177;DHT22;58877;51.992;4.504;2024-01-16T04:10:27;2.51;85.23
71177;DHT22;58877;51.992;4.504;2024-01-16T04:12:53;2.53;85.34
71177;DHT22;58877;51.992;4.504;2024-01-16T04:15:18;2.61;85.20
71177;DHT22;58877;51.992;4.504;2024-01-16T04:17:44;2.68;84.94
71177;DHT22;58877;51.992;4.504;2024-01-16T04:20:10;2.74;84.76
71177;DHT22;58877;51.992;4.504;2024-01-16T04:22:36;2.83;84.55
71177;DHT22;58877;51.992;4.504;2024-01-16T04:25:02;2.84;84.39
71177;DHT22;58877;51.992;4.504;2024-01-16T04:27:30;2.88;84.23
71177;DHT22;58877;51.992;4.504;2024-01-16T04:29:56;2.95;84.04
71177;DHT22;58877;51.992;4.504;2024-01-16T04:32:22;2.98;83.89
71177;DHT22;58877;51.992;4.504;2024-01-16T04:34:48;3.02;83.80
71177;DHT22;58877;51.992;4.504;2024-01-16T04:37:13;3.11;83.73
71177;DHT22;58877;51.992;4.504;2024-01-16T04:39:39;3.11;83.42
71177;DHT22;58877;51.992;4.504;2024-01-16T04:42:05;3.09;83.39
71177;DHT22;58877;51.992;4.504;2024-01-16T04:44:30;3.11;83.39
71177;DHT22;58877;51.992;4.504;2024-01-16T04:46:56;3.16;83.31
71177;DHT22;58877;51.992;4.504;2024-01-16T04:49:21;3.16;83.15
71177;DHT22;58877;51.992;4.504;2024-01-16T04:51:47;3.19;83.15
71177;DHT22;58877;51.992;4.504;2024-01-16T04:54:13;3.22;83.05
71177;DHT22;58877;51.992;4.504;2024-01-16T04:56:38;3.19;82.90
71177;DHT22;58877;51.992;4.504;2024-01-16T04:59:04;3.22;82.95
71177;DHT22;58877;51.992;4.504;2024-01-16T05:01:29;3.16;82.94
71177;DHT22;58877;51.992;4.504;2024-01-16T05:03:55;3.21;82.83
71177;DHT22;58877;51.992;4.504;2024-01-16T05:06:21;3.08;82.69
71177;DHT22;58877;51.992;4.504;2024-01-16T05:08:47;3.08;82.94
71177;DHT22;58877;51.992;4.504;2024-01-16T05:11:13;2.97;83.22
71177;DHT22;58877;51.992;4.504;2024-01-16T05:13:38;3.02;83.25
71177;DHT22;58877;51.992;4.504;2024-01-16T05:16:05;3.05;83.32
71177;DHT22;58877;51.992;4.504;2024-01-16T05:18:31;3.07;83.25
71177;DHT22;58877;51.992;4.504;2024-01-16T05:20:58;3.12;83.16
71177;DHT22;58877;51.992;4.504;2024-01-16T05:23:24;3.09;82.97
71177;DHT22;58877;51.992;4.504;2024-01-16T05:25:49;3.09;83.02
71177;DHT22;58877;51.992;4.504;2024-01-16T05:28:15;3.08;82.96
71177;DHT22;58877;51.992;4.504;2024-01-16T05:30:40;3.08;83.05
71177;DHT22;58877;51.992;4.504;2024-01-16T05:33:06;3.09;82.88
71177;DHT22;58877;51.992;4.504;2024-01-16T05:35:32;3.12;82.85
71177;DHT22;58877;51.992;4.504;2024-01-16T05:37:58;3.05;82.75
71177;DHT22;58877;51.992;4.504;2024-01-16T05:40:25;3.05;82.83
71177;DHT22;58877;51.992;4.504;2024-01-16T05:42:50;3.07;82.89
71177;DHT22;58877;51.992;4.504;2024-01-16T05:45:16;3.07;82.86
71177;DHT22;58877;51.992;4.504;2024-01-16T05:47:42;3.04;82.97
71177;DHT22;58877;51.992;4.504;2024-01-16T05:50:08;3.07;83.03
71177;DHT22;58877;51.992;4.504;2024-01-16T05:52:34;3.08;83.15
71177;DHT22;58877;51.992;4.504;2024-01-16T05:55:00;3.13;83.01
71177;DHT22;58877;51.992;4.504;2024-01-16T05:57:29;3.08;82.88
71177;DHT22;58877;51.992;4.504;2024-01-16T05:59:59;3.02;82.91
71177;DHT22;58877;51.992;4.504;2024-01-16T06:02:27;3.01;82.91
71177;DHT22;58877;51.992;4.504;2024-01-16T06:04:52;2.99;82.91
71177;DHT22;58877;51.992;4.504;2024-01-16T06:07:18;2.97;82.98
71177;DHT22;58877;51.992;4.504;2024-01-16T06:09:43;2.98;82.93
71177;DHT22;58877;51.992;4.504;2024-01-16T06:12:09;2.98;82.79
71177;DHT22;58877;51.992;4.504;2024-01-16T06:14:35;2.95;82.85
71177;DHT22;58877;51.992;4.504;2024-01-16T06:17:01;2.97;82.85
71177;DHT22;58877;51.992;4.504;2024-01-16T06:19:28;2.97;82.81
71177;DHT22;58877;51.992;4.504;2024-01-16T06:21:53;2.92;82.63
71177;DHT22;58877;51.992;4.504;2024-01-16T06:24:19;2.95;82.72
71177;DHT22;58877;51.992;4.504;2024-01-16T06:26:45;2.88;82.47
71177;DHT22;58877;51.992;4.504;2024-01-16T06:29:10;2.89;82.52
71177;DHT22;58877;51.992;4.504;2024-01-16T06:31:36;2.85;82.20
71177;DHT22;58877;51.992;4.504;2024-01-16T06:34:01;2.89;82.44
71177;DHT22;58877;51.992;4.504;2024-01-16T06:36:27;3.01;82.27
71177;DHT22;58877;51.992;4.504;2024-01-16T06:38:52;2.91;81.61
71177;DHT22;58877;51.992;4.504;2024-01-16T06:41:18;2.84;81.69
71177;DHT22;58877;51.992;4.504;2024-01-16T06:43:44;2.92;82.09
71177;DHT22;58877;51.992;4.504;2024-01-16T06:46:09;2.89;81.75
71177;DHT22;58877;51.992;4.504;2024-01-16T06:48:36;2.83;81.30
71177;DHT22;58877;51.992;4.504;2024-01-16T06:51:05;2.78;81.48
71177;DHT22;58877;51.992;4.504;2024-01-16T06:53:31;2.76;81.58
71177;DHT22;58877;51.992;4.504;2024-01-16T06:55:56;2.77;81.46
71177;DHT22;58877;51.992;4.504;2024-01-16T06:58:24;2.78;81.48
71177;DHT22;58877;51.992;4.504;2024-01-16T07:00:50;2.81;81.41
71177;DHT22;58877;51.992;4.504;2024-01-16T07:03:16;2.83;80.89
71177;DHT22;58877;51.992;4.504;2024-01-16T07:05:42;2.78;80.70
71177;DHT22;58877;51.992;4.504;2024-01-16T07:08:09;2.80;80.74
71177;DHT22;58877;51.992;4.504;2024-01-16T07:10:35;2.88;81.22
71177;DHT22;58877;51.992;4.504;2024-01-16T07:13:01;2.88;79.95
71177;DHT22;58877;51.992;4.504;2024-01-16T07:15:28;2.85;80.45
71177;DHT22;58877;51.992;4.504;2024-01-16T07:17:54;2.97;80.43
71177;DHT22;58877;51.992;4.504;2024-01-16T07:20:19;2.99;80.18
71177;DHT22;58877;51.992;4.504;2024-01-16T07:22:45;3.02;79.71
71177;DHT22;58877;51.992;4.504;2024-01-16T07:25:11;3.07;78.54
71177;DHT22;58877;51.992;4.504;2024-01-16T07:27:37;2.99;78.07
71177;DHT22;58877;51.992;4.504;2024-01-16T07:30:06;2.98;78.11
71177;DHT22;58877;51.992;4.504;2024-01-16T07:32:32;2.98;77.99
71177;DHT22;58877;51.992;4.504;2024-01-16T07:34:58;3.02;78.00
71177;DHT22;58877;51.992;4.504;2024-01-16T07:37:23;2.92;77.83
71177;DHT22;58877;51.992;4.504;2024-01-16T07:39:52;2.95;78.42
71177;DHT22;58877;51.992;4.504;2024-01-16T07:42:17;2.99;77.73
71177;DHT22;58877;51.992;4.504;2024-01-16T07:44:43;2.97;77.70
71177;DHT22;58877;51.992;4.504;2024-01-16T07:47:09;2.87;77.58
71177;DHT22;58877;51.992;4.504;2024-01-16T07:49:35;2.95;78.29
71177;DHT22;58877;51.992;4.504;2024-01-16T07:52:00;3.05;76.91
71177;DHT22;58877;51.992;4.504;2024-01-16T07:54:26;2.99;76.09
71177;DHT22;58877;51.992;4.504;2024-01-16T07:56:52;2.98;76.24
71177;DHT22;58877;51.992;4.504;2024-01-16T07:59:17;3.04;75.88
71177;DHT22;58877;51.992;4.504;2024-01-16T08:01:44;3.05;75.48
71177;DHT22;58877;51.992;4.504;2024-01-16T08:04:10;3.08;76.11
71177;DHT22;58877;51.992;4.504;2024-01-16T08:06:36;3.16;76.02
71177;DHT22;58877;51.992;4.504;2024-01-16T08:09:02;3.26;75.56
71177;DHT22;58877;51.992;4.504;2024-01-16T08:11:27;3.16;74.14
71177;DHT22;58877;51.992;4.504;2024-01-16T08:13:53;3.16;74.73
71177;DHT22;58877;51.992;4.504;2024-01-16T08:16:19;3.09;73.83
71177;DHT22;58877;51.992;4.504;2024-01-16T08:18:46;3.07;74.15
71177;DHT22;58877;51.992;4.504;2024-01-16T08:21:11;2.99;73.86
71177;DHT22;58877;51.992;4.504;2024-01-16T08:23:37;3.05;73.51
71177;DHT22;58877;51.992;4.504;2024-01-16T08:26:02;3.09;73.50
71177;DHT22;58877;51.992;4.504;2024-01-16T08:28:28;3.11;73.24
71177;DHT22;58877;51.992;4.504;2024-01-16T08:30:54;3.18;73.16
71177;DHT22;58877;51.992;4.504;2024-01-16T08:33:20;3.01;72.92
71177;DHT22;58877;51.992;4.504;2024-01-16T08:35:45;2.98;73.50
71177;DHT22;58877;51.992;4.504;2024-01-16T08:38:11;2.98;73.56
71177;DHT22;58877;51.992;4.504;2024-01-16T08:40:37;3.13;73.44
71177;DHT22;58877;51.992;4.504;2024-01-16T08:43:03;3.18;73.25
71177;DHT22;58877;51.992;4.504;2024-01-16T08:45:29;3.28;72.74
71177;DHT22;58877;51.992;4.504;2024-01-16T08:47:55;3.13;72.02
71177;DHT22;58877;51.992;4.504;2024-01-16T08:50:20;3.18;72.05
71177;DHT22;58877;51.992;4.504;2024-01-16T08:52:46;3.23;70.66
71177;DHT22;58877;51.992;4.504;2024-01-16T08:55:15;3.22;70.14
71177;DHT22;58877;51.992;4.504;2024-01-16T08:57:40;3.23;69.96
71177;DHT22;58877;51.992;4.504;2024-01-16T09:00:06;3.28;69.12
71177;DHT22;58877;51.992;4.504;2024-01-16T09:02:35;3.25;69.53
71177;DHT22;58877;51.992;4.504;2024-01-16T09:05:00;3.23;68.89
71177;DHT22;58877;51.992;4.504;2024-01-16T09:07:26;3.19;68.44
71177;DHT22;58877;51.992;4.504;2024-01-16T09:09:52;3.25;67.87
71177;DHT22;58877;51.992;4.504;2024-01-16T09:12:17;3.25;68.13
71177;DHT22;58877;51.992;4.504;2024-01-16T09:14:43;3.26;68.13
71177;DHT22;58877;51.992;4.504;2024-01-16T09:17:10;3.25;68.33
71177;DHT22;58877;51.992;4.504;2024-01-16T09:19:36;3.16;67.37
71177;DHT22;58877;51.992;4.504;2024-01-16T09:22:02;3.21;66.78
71177;DHT22;58877;51.992;4.504;2024-01-16T09:24:29;3.22;66.53
71177;DHT22;58877;51.992;4.504;2024-01-16T09:26:55;3.21;66.66
71177;DHT22;58877;51.992;4.504;2024-01-16T09:29:20;3.33;66.65
71177;DHT22;58877;51.992;4.504;2024-01-16T09:31:48;3.28;65.87
71177;DHT22;58877;51.992;4.504;2024-01-16T09:34:14;3.32;66.40
71177;DHT22;58877;51.992;4.504;2024-01-16T09:36:40;3.39;66.68
71177;DHT22;58877;51.992;4.504;2024-01-16T09:39:06;3.38;66.53
71177;DHT22;58877;51.992;4.504;2024-01-16T09:41:39;3.33;66.20
71177;DHT22;58877;51.992;4.504;2024-01-16T09:44:09;3.19;66.23
71177;DHT22;58877;51.992;4.504;2024-01-16T09:46:37;3.21;65.63
71177;DHT22;58877;51.992;4.504;2024-01-16T09:49:03;3.35;65.89
71177;DHT22;58877;51.992;4.504;2024-01-16T09:51:29;3.39;65.06
71177;DHT22;58877;51.992;4.504;2024-01-16T09:53:55;3.35;64.83
71177;DHT22;58877;51.992;4.504;2024-01-16T09:56:23;3.18;64.86
71177;DHT22;58877;51.992;4.504;2024-01-16T09:58:58;3.13;64.86
71177;DHT22;58877;51.992;4.504;2024-01-16T10:01:29;3.19;64.71
71177;DHT22;58877;51.992;4.504;2024-01-16T10:03:55;3.31;64.72
71177;DHT22;58877;51.992;4.504;2024-01-16T10:06:23;3.43;64.09
71177;DHT22;58877;51.992;4.504;2024-01-16T10:08:49;3.36;64.14
71177;DHT22;58877;51.992;4.504;2024-01-16T10:11:15;3.52;64.28
71177;DHT22;58877;51.992;4.504;2024-01-16T10:13:40;3.56;64.43
71177;DHT22;58877;51.992;4.504;2024-01-16T10:16:06;3.60;64.28
71177;DHT22;58877;51.992;4.504;2024-01-16T10:18:32;3.76;64.31
71177;DHT22;58877;51.992;4.504;2024-01-16T10:20:59;3.76;63.48
71177;DHT22;58877;51.992;4.504;2024-01-16T10:23:28;3.63;63.60
71177;DHT22;58877;51.992;4.504;2024-01-16T10:26:11;3.67;62.60
71177;DHT22;58877;51.992;4.504;2024-01-16T10:28:39;3.62;62.82
71177;DHT22;58877;51.992;4.504;2024-01-16T10:31:06;3.66;62.28
71177;DHT22;58877;51.992;4.504;2024-01-16T10:33:32;3.74;62.57
71177;DHT22;58877;51.992;4.504;2024-01-16T10:36:16;3.67;61.56
71177;DHT22;58877;51.992;4.504;2024-01-16T10:38:45;3.76;62.47
71177;DHT22;58877;51.992;4.504;2024-01-16T10:43:40;3.72;61.20
71177;DHT22;58877;51.992;4.504;2024-01-16T10:46:14;3.67;60.55
71177;DHT22;58877;51.992;4.504;2024-01-16T10:48:45;3.74;61.40
71177;DHT22;58877;51.992;4.504;2024-01-16T10:51:23;3.90;61.72
71177;DHT22;58877;51.992;4.504;2024-01-16T10:54:12;3.98;61.78
71177;DHT22;58877;51.992;4.504;2024-01-16T10:56:49;3.91;62.80
71177;DHT22;58877;51.992;4.504;2024-01-16T10:59:19;3.91;61.51
71177;DHT22;58877;51.992;4.504;2024-01-16T11:01:50;3.76;61.49
71177;DHT22;58877;51.992;4.504;2024-01-16T11:04:18;4.07;61.69
71177;DHT22;58877;51.992;4.504;2024-01-16T11:06:46;4.06;61.06
71177;DHT22;58877;51.992;4.504;2024-01-16T11:09:13;4.01;60.90
71177;DHT22;58877;51.992;4.504;2024-01-16T11:11:42;3.90;60.05
71177;DHT22;58877;51.992;4.504;2024-01-16T11:14:08;3.70;60.23
71177;DHT22;58877;51.992;4.504;2024-01-16T11:16:34;3.56;60.54
71177;DHT22;58877;51.992;4.504;2024-01-16T11:19:04;3.58;60.37
71177;DHT22;58877;51.992;4.504;2024-01-16T11:21:32;3.69;60.24
71177;DHT22;58877;51.992;4.504;2024-01-16T11:23:57;3.77;60.38
71177;DHT22;58877;51.992;4.504;2024-01-16T11:26:28;3.76;60.56
71177;DHT22;58877;51.992;4.504;2024-01-16T11:28:55;3.79;61.22
71177;DHT22;58877;51.992;4.504;2024-01-16T11:33:54;3.76;60.13
71177;DHT22;58877;51.992;4.504;2024-01-16T11:36:49;3.73;60.25
71177;DHT22;58877;51.992;4.504;2024-01-16T11:39:25;3.72;60.08
71177;DHT22;58877;51.992;4.504;2024-01-16T11:42:01;3.79;60.48
71177;DHT22;58877;51.992;4.504;2024-01-16T11:44:49;3.89;60.33
71177;DHT22;58877;51.992;4.504;2024-01-16T11:47:23;3.97;60.44
71177;DHT22;58877;51.992;4.504;2024-01-16T11:49:51;4.08;59.36
71177;DHT22;58877;51.992;4.504;2024-01-16T11:52:42;4.34;59.86
71177;DHT22;58877;51.992;4.504;2024-01-16T11:55:57;4.01;58.43
71177;DHT22;58877;51.992;4.504;2024-01-16T12:00:58;3.70;59.50
71177;DHT22;58877;51.992;4.504;2024-01-16T12:03:25;3.80;60.40
71177;DHT22;58877;51.992;4.504;2024-01-16T12:06:00;3.69;59.47
71177;DHT22;58877;51.992;4.504;2024-01-16T12:08:27;3.77;59.99
71177;DHT22;58877;51.992;4.504;2024-01-16T12:10:54;3.90;59.07
71177;DHT22;58877;51.992;4.504;2024-01-16T12:13:19;3.87;59.26
71177;DHT22;58877;51.992;4.504;2024-01-16T12:15:45;3.79;58.86
71177;DHT22;58877;51.992;4.504;2024-01-16T12:18:18;3.76;59.78
71177;DHT22;58877;51.992;4.504;2024-01-16T12:20:44;3.76;59.60
71177;DHT22;58877;51.992;4.504;2024-01-16T12:23:10;3.70;60.15
71177;DHT22;58877;51.992;4.504;2024-01-16T12:25:37;3.63;59.83
71177;DHT22;58877;51.992;4.504;2024-01-16T12:28:07;3.70;59.44
71177;DHT22;58877;51.992;4.504;2024-01-16T12:30:37;3.87;60.24
71177;DHT22;58877;51.992;4.504;2024-01-16T12:33:07;3.98;60.26
71177;DHT22;58877;51.992;4.504;2024-01-16T12:35:41;3.89;59.89
71177;DHT22;58877;51.992;4.504;2024-01-16T12:38:11;3.90;59.79
71177;DHT22;58877;51.992;4.504;2024-01-16T12:40:48;4.00;59.89
71177;DHT22;58877;51.992;4.504;2024-01-16T12:43:17;3.94;59.28
71177;DHT22;58877;51.992;4.504;2024-01-16T12:45:44;4.10;59.43
71177;DHT22;58877;51.992;4.504;2024-01-16T12:48:10;4.22;59.68
71177;DHT22;58877;51.992;4.504;2024-01-16T12:50:36;4.21;58.37
71177;DHT22;58877;51.992;4.504;2024-01-16T12:55:34;4.16;59.30
71177;DHT22;58877;51.992;4.504;2024-01-16T12:58:21;4.04;58.26
71177;DHT22;58877;51.992;4.504;2024-01-16T13:00:51;4.04;58.83
71177;DHT22;58877;51.992;4.504;2024-01-16T13:03:19;4.11;58.81
71177;DHT22;58877;51.992;4.504;2024-01-16T13:05:59;4.16;58.43
71177;DHT22;58877;51.992;4.504;2024-01-16T13:08:26;4.22;58.77
71177;DHT22;58877;51.992;4.504;2024-01-16T13:11:22;4.41;58.61
71177;DHT22;58877;51.992;4.504;2024-01-16T13:13:48;4.34;58.59
71177;DHT22;58877;51.992;4.504;2024-01-16T13:16:15;4.34;58.55
71177;DHT22;58877;51.992;4.504;2024-01-16T13:18:41;4.41;59.06
71177;DHT22;58877;51.992;4.504;2024-01-16T13:21:07;4.40;58.99
71177;DHT22;58877;51.992;4.504;2024-01-16T13:23:33;4.34;59.09
71177;DHT22;58877;51.992;4.504;2024-01-16T13:25:58;4.28;59.56
71177;DHT22;58877;51.992;4.504;2024-01-16T13:28:33;4.49;59.39
71177;DHT22;58877;51.992;4.504;2024-01-16T13:30:59;4.58;59.36
71177;DHT22;58877;51.992;4.504;2024-01-16T13:33:25;4.73;59.41
71177;DHT22;58877;51.992;4.504;2024-01-16T13:35:53;4.79;59.09
71177;DHT22;58877;51.992;4.504;2024-01-16T13:38:22;4.83;58.21
71177;DHT22;58877;51.992;4.504;2024-01-16T13:40:48;4.81;58.32
71177;DHT22;58877;51.992;4.504;2024-01-16T13:43:16;4.68;58.35
71177;DHT22;58877;51.992;4.504;2024-01-16T13:45:44;4.58;58.72
71177;DHT22;58877;51.992;4.504;2024-01-16T13:48:10;4.58;59.19
71177;DHT22;58877;51.992;4.504;2024-01-16T13:50:36;4.62;59.36
71177;DHT22;58877;51.992;4.504;2024-01-16T13:53:02;4.64;59.40
71177;DHT22;58877;51.992;4.504;2024-01-16T13:55:31;4.64;59.63
71177;DHT22;58877;51.992;4.504;2024-01-16T13:58:02;4.65;59.51
71177;DHT22;58877;51.992;4.504;2024-01-16T14:00:28;4.72;59.84
71177;DHT22;58877;51.992;4.504;2024-01-16T14:02:53;4.81;59.92
71177;DHT22;58877;51.992;4.504;2024-01-16T14:05:21;4.81;60.53
71177;DHT22;58877;51.992;4.504;2024-01-16T14:07:52;4.86;60.28
71177;DHT22;58877;51.992;4.504;2024-01-16T14:10:22;4.88;60.18
71177;DHT22;58877;51.992;4.504;2024-01-16T14:12:51;4.88;60.63
71177;DHT22;58877;51.992;4.504;2024-01-16T14:15:19;4.86;60.36
71177;DHT22;58877;51.992;4.504;2024-01-16T14:17:51;4.75;60.38
71177;DHT22;58877;51.992;4.504;2024-01-16T14:20:18;4.73;60.92
71177;DHT22;58877;51.992;4.504;2024-01-16T14:22:54;4.76;60.81
71177;DHT22;58877;51.992;4.504;2024-01-16T14:25:20;4.79;60.70
71177;DHT22;58877;51.992;4.504;2024-01-16T14:27:56;4.75;61.21
71177;DHT22;58877;51.992;4.504;2024-01-16T14:30:23;4.81;61.06
71177;DHT22;58877;51.992;4.504;2024-01-16T14:32:51;4.81;61.15
71177;DHT22;58877;51.992;4.504;2024-01-16T14:35:17;4.83;61.61
71177;DHT22;58877;51.992;4.504;2024-01-16T14:37:43;4.85;61.67
71177;DHT22;58877;51.992;4.504;2024-01-16T14:40:10;4.95;61.36
71177;DHT22;58877;51.992;4.504;2024-01-16T14:42:44;4.91;61.64
71177;DHT22;58877;51.992;4.504;2024-01-16T14:45:22;4.97;61.61
71177;DHT22;58877;51.992;4.504;2024-01-16T14:47:48;5.06;61.47
71177;DHT22;58877;51.992;4.504;2024-01-16T14:50:17;4.97;61.20
71177;DHT22;58877;51.992;4.504;2024-01-16T14:52:44;4.85;61.05
71177;DHT22;58877;51.992;4.504;2024-01-16T14:55:12;4.67;60.83
71177;DHT22;58877;51.992;4.504;2024-01-16T14:57:38;4.71;61.03
71177;DHT22;58877;51.992;4.504;2024-01-16T15:00:09;5.08;60.99
71177;DHT22;58877;51.992;4.504;2024-01-16T15:02:45;4.91;61.01
71177;DHT22;58877;51.992;4.504;2024-01-16T15:05:12;4.81;61.67
71177;DHT22;58877;51.992;4.504;2024-01-16T15:07:39;4.85;61.92
71177;DHT22;58877;51.992;4.504;2024-01-16T15:10:06;5.35;61.24
71177;DHT22;58877;51.992;4.504;2024-01-16T15:12:35;5.78;59.23
71177;DHT22;58877;51.992;4.504;2024-01-16T15:15:01;6.00;58.75
71177;DHT22;58877;51.992;4.504;2024-01-16T15:17:29;6.18;58.52
71177;DHT22;58877;51.992;4.504;2024-01-16T15:19:55;6.17;57.65
71177;DHT22;58877;51.992;4.504;2024-01-16T15:22:20;5.88;57.65
71177;DHT22;58877;51.992;4.504;2024-01-16T15:24:46;5.46;59.07
71177;DHT22;58877;51.992;4.504;2024-01-16T15:27:13;5.12;60.16
71177;DHT22;58877;51.992;4.504;2024-01-16T15:29:38;4.95;61.13
71177;DHT22;58877;51.992;4.504;2024-01-16T15:32:04;4.81;61.38
71177;DHT22;58877;51.992;4.504;2024-01-16T15:34:31;4.72;61.76
71177;DHT22;58877;51.992;4.504;2024-01-16T15:36:58;4.58;62.07
71177;DHT22;58877;51.992;4.504;2024-01-16T15:39:24;4.36;62.81
71177;DHT22;58877;51.992;4.504;2024-01-16T15:41:50;4.40;63.01
71177;DHT22;58877;51.992;4.504;2024-01-16T15:44:15;4.27;63.35
71177;DHT22;58877;51.992;4.504;2024-01-16T15:47:07;4.20;63.73
71177;DHT22;58877;51.992;4.504;2024-01-16T15:49:33;4.16;63.93
71177;DHT22;58877;51.992;4.504;2024-01-16T15:52:01;4.07;64.20
71177;DHT22;58877;51.992;4.504;2024-01-16T15:54:30;4.08;64.41
71177;DHT22;58877;51.992;4.504;2024-01-16T15:56:56;4.07;64.36